sensor_id;sensor_type;location;lat;lon;timestamp;P1;durP1;ratioP1;P2;durP2;ratioP2
55800;SDS011;41730;51.960;20.158;2023-03-12T00:00:27;17.10;;;8.70;;
55800;SDS011;41730;51.960;20.158;2023-03-12T00:03:01;18.40;;;9.10;;
55800;SDS011;41730;51.960;20.158;2023-03-12T00:05:34;13.20;;;8.30;;
55800;SDS011;41730;51.960;20.158;2023-03-12T00:08:08;14.10;;;8.20;;
55800;SDS011;41730;51.960;20.158;2023-03-12T00:10:40;14.70;;;8.90;;
55800;SDS011;41730;51.960;20.158;2023-03-12T00:13:11;16.70;;;8.80;;
55800;SDS011;41730;51.960;20.158;2023-03-12T00:15:43;15.40;;;8.00;;
55800;SDS011;41730;51.960;20.158;2023-03-12T00:18:14;14.30;;;7.90;;
55800;SDS011;41730;51.960;20.158;2023-03-12T00:20:53;18.00;;;8.60;;
55800;SDS011;41730;51.960;20.158;2023-03-12T00:23:25;18.60;;;9.50;;
55800;SDS011;41730;51.960;20.158;2023-03-12T00:26:00;14.40;;;7.90;;
55800;SDS011;41730;51.960;20.158;2023-03-12T00:28:33;22.60;;;11.10;;
55800;SDS011;41730;51.960;20.158;2023-03-12T00:31:13;16.80;;;8.90;;
55800;SDS011;41730;51.960;20.158;2023-03-12T00:33:47;15.60;;;8.10;;
55800;SDS011;41730;51.960;20.158;2023-03-12T00:36:19;15.90;;;8.40;;
55800;SDS011;41730;51.960;20.158;2023-03-12T00:38:55;14.70;;;8.30;;
55800;SDS011;41730;51.960;20.158;2023-03-12T00:41:30;15.30;;;9.00;;
55800;SDS011;41730;51.960;20.158;2023-03-12T00:44:02;16.70;;;9.00;;
55800;SDS011;41730;51.960;20.158;2023-03-12T00:46:34;14.70;;;7.60;;
55800;SDS011;41730;51.960;20.158;2023-03-12T00:49:06;14.70;;;7.60;;
55800;SDS011;41730;51.960;20.158;2023-03-12T00:51:39;13.90;;;8.00;;
55800;SDS011;41730;51.960;20.158;2023-03-12T00:54:10;13.50;;;7.50;;
55800;SDS011;41730;51.960;20.158;2023-03-12T00:56:42;14.80;;;7.40;;
55800;SDS011;41730;51.960;20.158;2023-03-12T00:59:15;17.10;;;7.60;;
55800;SDS011;41730;51.960;20.158;2023-03-12T01:01:47;14.80;;;7.30;;
55800;SDS011;41730;51.960;20.158;2023-03-12T01:04:19;14.00;;;6.50;;
55800;SDS011;41730;51.960;20.158;2023-03-12T01:06:51;13.70;;;8.30;;
55800;SDS011;41730;51.960;20.158;2023-03-12T01:09:25;12.20;;;7.20;;
55800;SDS011;41730;51.960;20.158;2023-03-12T01:11:57;13.80;;;7.40;;
55800;SDS011;41730;51.960;20.158;2023-03-12T01:14:29;11.30;;;6.70;;
55800;SDS011;41730;51.960;20.158;2023-03-12T01:17:01;15.30;;;7.40;;
55800;SDS011;41730;51.960;20.158;2023-03-12T01:19:33;14.10;;;7.60;;
55800;SDS011;41730;51.960;20.158;2023-03-12T01:22:04;15.90;;;8.00;;
55800;SDS011;41730;51.960;20.158;2023-03-12T01:24:36;14.10;;;7.30;;
55800;SDS011;41730;51.960;20.158;2023-03-12T01:27:08;12.50;;;7.10;;
55800;SDS011;41730;51.960;20.158;2023-03-12T01:29:39;10.60;;;6.20;;
55800;SDS011;41730;51.960;20.158;2023-03-12T01:32:11;11.90;;;6.40;;
55800;SDS011;41730;51.960;20.158;2023-03-12T01:34:44;12.20;;;5.80;;
55800;SDS011;41730;51.960;20.158;2023-03-12T01:37:17;11.80;;;6.70;;
55800;SDS011;41730;51.960;20.158;2023-03-12T01:39:49;11.90;;;6.60;;
55800;SDS011;41730;51.960;20.158;2023-03-12T01:42:21;13.40;;;7.30;;
55800;SDS011;41730;51.960;20.158;2023-03-12T01:44:54;12.70;;;6.60;;
55800;SDS011;41730;51.960;20.158;2023-03-12T01:47:27;14.70;;;7.20;;
55800;SDS011;41730;51.960;20.158;2023-03-12T01:50:00;10.70;;;5.60;;
55800;SDS011;41730;51.960;20.158;2023-03-12T01:52:34;10.80;;;6.40;;
55800;SDS011;41730;51.960;20.158;2023-03-12T01:55:08;12.70;;;6.30;;
55800;SDS011;41730;51.960;20.158;2023-03-12T01:57:43;11.50;;;6.40;;
55800;SDS011;41730;51.960;20.158;2023-03-12T02:00:19;12.20;;;6.10;;
55800;SDS011;41730;51.960;20.158;2023-03-12T02:02:52;10.30;;;6.20;;
55800;SDS011;41730;51.960;20.158;2023-03-12T02:05:27;11.40;;;6.30;;
55800;SDS011;41730;51.960;20.158;2023-03-12T02:08:06;11.50;;;6.00;;
55800;SDS011;41730;51.960;20.158;2023-03-12T02:10:40;12.50;;;5.90;;
55800;SDS011;41730;51.960;20.158;2023-03-12T02:13:13;12.80;;;6.50;;
55800;SDS011;41730;51.960;20.158;2023-03-12T02:15:45;10.10;;;5.30;;
55800;SDS011;41730;51.960;20.158;2023-03-12T02:18:17;11.50;;;6.50;;
55800;SDS011;41730;51.960;20.158;2023-03-12T02:20:51;11.30;;;6.10;;
55800;SDS011;41730;51.960;20.158;2023-03-12T02:23:31;12.50;;;5.50;;
55800;SDS011;41730;51.960;20.158;2023-03-12T02:26:10;13.60;;;6.00;;
55800;SDS011;41730;51.960;20.158;2023-03-12T02:28:43;10.00;;;5.70;;
55800;SDS011;41730;51.960;20.158;2023-03-12T02:31:17;11.60;;;6.00;;
55800;SDS011;41730;51.960;20.158;2023-03-12T02:33:52;12.50;;;7.90;;
55800;SDS011;41730;51.960;20.158;2023-03-12T02:36:25;11.60;;;5.30;;
55800;SDS011;41730;51.960;20.158;2023-03-12T02:38:57;10.20;;;5.70;;
55800;SDS011;41730;51.960;20.158;2023-03-12T02:41:29;11.70;;;5.70;;
55800;SDS011;41730;51.960;20.158;2023-03-12T02:44:06;11.30;;;6.70;;
55800;SDS011;41730;51.960;20.158;2023-03-12T02:46:43;12.00;;;6.00;;
55800;SDS011;41730;51.960;20.158;2023-03-12T02:51:47;11.30;;;6.30;;
55800;SDS011;41730;51.960;20.158;2023-03-12T02:54:20;9.90;;;5.80;;
55800;SDS011;41730;51.960;20.158;2023-03-12T02:56:54;15.50;;;5.80;;
55800;SDS011;41730;51.960;20.158;2023-03-12T02:59:26;12.90;;;6.50;;
55800;SDS011;41730;51.960;20.158;2023-03-12T03:01:58;12.10;;;5.80;;
55800;SDS011;41730;51.960;20.158;2023-03-12T03:04:31;12.20;;;6.30;;
55800;SDS011;41730;51.960;20.158;2023-03-12T03:07:03;11.60;;;6.20;;
55800;SDS011;41730;51.960;20.158;2023-03-12T03:09:37;12.40;;;6.50;;
55800;SDS011;41730;51.960;20.158;2023-03-12T03:12:09;10.00;;;5.40;;
55800;SDS011;41730;51.960;20.158;2023-03-12T03:14:40;13.30;;;6.60;;
55800;SDS011;41730;51.960;20.158;2023-03-12T03:17:12;10.80;;;6.00;;
55800;SDS011;41730;51.960;20.158;2023-03-12T03:19:45;17.30;;;6.40;;
55800;SDS011;41730;51.960;20.158;2023-03-12T03:22:17;12.10;;;6.90;;
55800;SDS011;41730;51.960;20.158;2023-03-12T03:24:50;13.20;;;6.90;;
55800;SDS011;41730;51.960;20.158;2023-03-12T03:27:22;12.00;;;6.70;;
55800;SDS011;41730;51.960;20.158;2023-03-12T03:29:54;12.60;;;6.40;;
55800;SDS011;41730;51.960;20.158;2023-03-12T03:32:27;9.60;;;6.20;;
55800;SDS011;41730;51.960;20.158;2023-03-12T03:34:58;12.30;;;6.10;;
55800;SDS011;41730;51.960;20.158;2023-03-12T03:37:30;11.20;;;6.90;;
55800;SDS011;41730;51.960;20.158;2023-03-12T03:40:02;12.30;;;6.40;;
55800;SDS011;41730;51.960;20.158;2023-03-12T03:42:39;8.30;;;5.60;;
55800;SDS011;41730;51.960;20.158;2023-03-12T03:45:11;11.80;;;6.00;;
55800;SDS011;41730;51.960;20.158;2023-03-12T03:47:42;10.30;;;6.50;;
55800;SDS011;41730;51.960;20.158;2023-03-12T03:50:15;11.70;;;6.00;;
55800;SDS011;41730;51.960;20.158;2023-03-12T03:52:47;12.10;;;6.00;;
55800;SDS011;41730;51.960;20.158;2023-03-12T03:55:20;13.00;;;5.90;;
55800;SDS011;41730;51.960;20.158;2023-03-12T03:57:53;9.60;;;5.90;;
55800;SDS011;41730;51.960;20.158;2023-03-12T04:00:24;11.90;;;5.60;;
55800;SDS011;41730;51.960;20.158;2023-03-12T04:02:56;10.30;;;6.00;;
55800;SDS011;41730;51.960;20.158;2023-03-12T04:05:28;11.10;;;5.70;;
55800;SDS011;41730;51.960;20.158;2023-03-12T04:07:59;9.30;;;5.40;;
55800;SDS011;41730;51.960;20.158;2023-03-12T04:10:31;7.10;;;5.20;;
55800;SDS011;41730;51.960;20.158;2023-03-12T04:13:04;9.70;;;5.80;;
55800;SDS011;41730;51.960;20.158;2023-03-12T04:15:36;9.80;;;5.10;;
55800;SDS011;41730;51.960;20.158;2023-03-12T04:18:08;9.30;;;5.40;;
55800;SDS011;41730;51.960;20.158;2023-03-12T04:20:40;10.70;;;5.10;;
55800;SDS011;41730;51.960;20.158;2023-03-12T04:23:12;10.30;;;5.30;;
55800;SDS011;41730;51.960;20.158;2023-03-12T04:25:45;9.10;;;5.10;;
55800;SDS011;41730;51.960;20.158;2023-03-12T04:28:32;8.90;;;5.20;;
55800;SDS011;41730;51.960;20.158;2023-03-12T04:31:15;9.70;;;6.30;;
55800;SDS011;41730;51.960;20.158;2023-03-12T04:33:47;10.00;;;5.60;;
55800;SDS011;41730;51.960;20.158;2023-03-12T04:36:18;9.90;;;4.80;;
55800;SDS011;41730;51.960;20.158;2023-03-12T04:38:50;9.10;;;5.10;;
55800;SDS011;41730;51.960;20.158;2023-03-12T04:41:22;8.90;;;5.20;;
55800;SDS011;41730;51.960;20.158;2023-03-12T04:43:55;9.00;;;5.20;;
55800;SDS011;41730;51.960;20.158;2023-03-12T04:46:26;13.70;;;5.00;;
55800;SDS011;41730;51.960;20.158;2023-03-12T04:48:59;9.60;;;4.90;;
55800;SDS011;41730;51.960;20.158;2023-03-12T04:51:31;10.40;;;4.90;;
55800;SDS011;41730;51.960;20.158;2023-03-12T04:54:03;8.00;;;5.00;;
55800;SDS011;41730;51.960;20.158;2023-03-12T04:56:35;7.90;;;4.70;;
55800;SDS011;41730;51.960;20.158;2023-03-12T04:59:08;10.40;;;5.00;;
55800;SDS011;41730;51.960;20.158;2023-03-12T05:01:40;11.60;;;4.80;;
55800;SDS011;41730;51.960;20.158;2023-03-12T05:04:12;8.40;;;4.70;;
55800;SDS011;41730;51.960;20.158;2023-03-12T05:06:46;8.70;;;4.90;;
55800;SDS011;41730;51.960;20.158;2023-03-12T05:09:17;9.80;;;4.60;;
55800;SDS011;41730;51.960;20.158;2023-03-12T05:11:49;7.50;;;4.80;;
55800;SDS011;41730;51.960;20.158;2023-03-12T05:14:21;8.30;;;5.00;;
55800;SDS011;41730;51.960;20.158;2023-03-12T05:16:52;8.40;;;4.30;;
55800;SDS011;41730;51.960;20.158;2023-03-12T05:19:24;11.00;;;5.00;;
55800;SDS011;41730;51.960;20.158;2023-03-12T05:21:57;8.00;;;4.70;;
55800;SDS011;41730;51.960;20.158;2023-03-12T05:24:31;10.10;;;5.70;;
55800;SDS011;41730;51.960;20.158;2023-03-12T05:27:04;8.60;;;5.20;;
55800;SDS011;41730;51.960;20.158;2023-03-12T05:29:37;8.70;;;5.20;;
55800;SDS011;41730;51.960;20.158;2023-03-12T05:32:09;6.60;;;4.60;;
55800;SDS011;41730;51.960;20.158;2023-03-12T05:34:41;9.70;;;5.10;;
55800;SDS011;41730;51.960;20.158;2023-03-12T05:37:13;11.40;;;5.40;;
55800;SDS011;41730;51.960;20.158;2023-03-12T05:39:45;8.00;;;5.20;;
55800;SDS011;41730;51.960;20.158;2023-03-12T05:42:17;8.20;;;4.80;;
55800;SDS011;41730;51.960;20.158;2023-03-12T05:44:48;9.00;;;5.10;;
55800;SDS011;41730;51.960;20.158;2023-03-12T05:47:21;9.80;;;5.70;;
55800;SDS011;41730;51.960;20.158;2023-03-12T05:49:52;13.50;;;4.90;;
55800;SDS011;41730;51.960;20.158;2023-03-12T05:52:24;10.50;;;5.30;;
55800;SDS011;41730;51.960;20.158;2023-03-12T05:54:56;8.00;;;5.10;;
55800;SDS011;41730;51.960;20.158;2023-03-12T05:57:28;9.40;;;5.40;;
55800;SDS011;41730;51.960;20.158;2023-03-12T06:00:02;9.30;;;5.20;;
55800;SDS011;41730;51.960;20.158;2023-03-12T06:02:36;8.00;;;5.20;;
55800;SDS011;41730;51.960;20.158;2023-03-12T06:05:10;9.80;;;5.50;;
55800;SDS011;41730;51.960;20.158;2023-03-12T06:07:43;11.10;;;5.70;;
55800;SDS011;41730;51.960;20.158;2023-03-12T06:10:15;8.90;;;6.20;;
55800;SDS011;41730;51.960;20.158;2023-03-12T06:12:47;8.50;;;6.10;;
55800;SDS011;41730;51.960;20.158;2023-03-12T06:15:19;8.10;;;5.70;;
55800;SDS011;41730;51.960;20.158;2023-03-12T06:17:51;9.70;;;5.90;;
55800;SDS011;41730;51.960;20.158;2023-03-12T06:20:23;8.70;;;6.00;;
55800;SDS011;41730;51.960;20.158;2023-03-12T06:22:57;10.50;;;6.90;;
55800;SDS011;41730;51.960;20.158;2023-03-12T06:25:29;16.70;;;6.50;;
55800;SDS011;41730;51.960;20.158;2023-03-12T06:28:01;9.90;;;6.00;;
55800;SDS011;41730;51.960;20.158;2023-03-12T06:30:33;9.80;;;5.50;;
55800;SDS011;41730;51.960;20.158;2023-03-12T06:33:06;10.60;;;6.10;;
55800;SDS011;41730;51.960;20.158;2023-03-12T06:35:38;10.20;;;5.60;;
55800;SDS011;41730;51.960;20.158;2023-03-12T06:38:11;8.20;;;5.30;;
55800;SDS011;41730;51.960;20.158;2023-03-12T06:40:43;9.90;;;5.20;;
55800;SDS011;41730;51.960;20.158;2023-03-12T06:43:25;10.90;;;5.00;;
55800;SDS011;41730;51.960;20.158;2023-03-12T06:45:58;7.40;;;4.90;;
55800;SDS011;41730;51.960;20.158;2023-03-12T06:48:31;8.90;;;5.30;;
55800;SDS011;41730;51.960;20.158;2023-03-12T06:51:04;10.20;;;5.70;;
55800;SDS011;41730;51.960;20.158;2023-03-12T06:53:37;11.90;;;6.00;;
55800;SDS011;41730;51.960;20.158;2023-03-12T06:56:10;13.70;;;6.00;;
55800;SDS011;41730;51.960;20.158;2023-03-12T06:58:42;9.60;;;5.80;;
55800;SDS011;41730;51.960;20.158;2023-03-12T07:01:14;9.70;;;6.00;;
55800;SDS011;41730;51.960;20.158;2023-03-12T07:03:45;8.00;;;5.30;;
55800;SDS011;41730;51.960;20.158;2023-03-12T07:06:18;9.50;;;5.70;;
55800;SDS011;41730;51.960;20.158;2023-03-12T07:08:51;11.00;;;6.10;;
55800;SDS011;41730;51.960;20.158;2023-03-12T07:11:23;11.00;;;5.60;;
55800;SDS011;41730;51.960;20.158;2023-03-12T07:13:55;10.50;;;7.60;;
55800;SDS011;41730;51.960;20.158;2023-03-12T07:16:26;11.20;;;6.00;;
55800;SDS011;41730;51.960;20.158;2023-03-12T07:18:59;10.90;;;6.30;;
55800;SDS011;41730;51.960;20.158;2023-03-12T07:21:31;9.70;;;6.30;;
55800;SDS011;41730;51.960;20.158;2023-03-12T07:24:03;9.80;;;6.10;;
55800;SDS011;41730;51.960;20.158;2023-03-12T07:26:36;11.00;;;6.50;;
55800;SDS011;41730;51.960;20.158;2023-03-12T07:29:08;12.20;;;7.10;;
55800;SDS011;41730;51.960;20.158;2023-03-12T07:31:40;10.90;;;6.00;;
55800;SDS011;41730;51.960;20.158;2023-03-12T07:34:12;33.10;;;15.30;;
55800;SDS011;41730;51.960;20.158;2023-03-12T07:36:46;17.30;;;10.70;;
55800;SDS011;41730;51.960;20.158;2023-03-12T07:39:18;12.10;;;8.40;;
55800;SDS011;41730;51.960;20.158;2023-03-12T07:41:50;10.80;;;6.50;;
55800;SDS011;41730;51.960;20.158;2023-03-12T07:44:21;11.30;;;6.90;;
55800;SDS011;41730;51.960;20.158;2023-03-12T07:46:53;10.40;;;6.40;;
55800;SDS011;41730;51.960;20.158;2023-03-12T07:49:33;11.50;;;6.10;;
55800;SDS011;41730;51.960;20.158;2023-03-12T07:52:06;8.00;;;5.20;;
55800;SDS011;41730;51.960;20.158;2023-03-12T07:54:39;9.40;;;6.30;;
55800;SDS011;41730;51.960;20.158;2023-03-12T07:57:11;8.70;;;5.60;;
55800;SDS011;41730;51.960;20.158;2023-03-12T07:59:44;8.30;;;5.70;;
55800;SDS011;41730;51.960;20.158;2023-03-12T08:02:16;9.40;;;5.20;;
55800;SDS011;41730;51.960;20.158;2023-03-12T08:04:49;7.60;;;5.30;;
55800;SDS011;41730;51.960;20.158;2023-03-12T08:07:21;12.90;;;5.80;;
55800;SDS011;41730;51.960;20.158;2023-03-12T08:09:53;9.80;;;5.90;;
55800;SDS011;41730;51.960;20.158;2023-03-12T08:12:26;10.80;;;5.80;;
55800;SDS011;41730;51.960;20.158;2023-03-12T08:14:57;14.70;;;7.10;;
55800;SDS011;41730;51.960;20.158;2023-03-12T08:17:29;11.70;;;6.90;;
55800;SDS011;41730;51.960;20.158;2023-03-12T08:20:01;10.90;;;6.70;;
55800;SDS011;41730;51.960;20.158;2023-03-12T08:22:36;7.80;;;5.70;;
55800;SDS011;41730;51.960;20.158;2023-03-12T08:25:09;10.70;;;6.60;;
55800;SDS011;41730;51.960;20.158;2023-03-12T08:27:43;13.00;;;6.10;;
55800;SDS011;41730;51.960;20.158;2023-03-12T08:30:16;15.50;;;7.80;;
55800;SDS011;41730;51.960;20.158;2023-03-12T08:32:48;10.00;;;5.30;;
55800;SDS011;41730;51.960;20.158;2023-03-12T08:35:21;5.40;;;3.30;;
55800;SDS011;41730;51.960;20.158;2023-03-12T08:37:54;5.60;;;3.70;;
55800;SDS011;41730;51.960;20.158;2023-03-12T08:40:28;7.70;;;3.60;;
55800;SDS011;41730;51.960;20.158;2023-03-12T08:43:01;9.90;;;5.70;;
55800;SDS011;41730;51.960;20.158;2023-03-12T08:45:34;11.10;;;4.90;;
55800;SDS011;41730;51.960;20.158;2023-03-12T08:48:06;13.10;;;6.20;;
55800;SDS011;41730;51.960;20.158;2023-03-12T08:50:38;13.00;;;5.80;;
55800;SDS011;41730;51.960;20.158;2023-03-12T08:53:10;9.50;;;5.00;;
55800;SDS011;41730;51.960;20.158;2023-03-12T08:55:43;9.90;;;4.20;;
55800;SDS011;41730;51.960;20.158;2023-03-12T08:58:15;12.90;;;6.50;;
55800;SDS011;41730;51.960;20.158;2023-03-12T09:00:47;14.80;;;6.20;;
55800;SDS011;41730;51.960;20.158;2023-03-12T09:03:20;25.50;;;16.60;;
55800;SDS011;41730;51.960;20.158;2023-03-12T09:05:58;9.50;;;4.90;;
55800;SDS011;41730;51.960;20.158;2023-03-12T09:08:33;7.30;;;4.20;;
55800;SDS011;41730;51.960;20.158;2023-03-12T09:11:09;7.90;;;3.80;;
55800;SDS011;41730;51.960;20.158;2023-03-12T09:13:46;6.80;;;3.40;;
55800;SDS011;41730;51.960;20.158;2023-03-12T09:16:38;6.80;;;2.70;;
55800;SDS011;41730;51.960;20.158;2023-03-12T09:19:11;5.10;;;2.60;;
55800;SDS011;41730;51.960;20.158;2023-03-12T09:21:43;8.00;;;3.00;;
55800;SDS011;41730;51.960;20.158;2023-03-12T09:24:16;5.60;;;2.80;;
55800;SDS011;41730;51.960;20.158;2023-03-12T09:26:47;7.00;;;3.00;;
55800;SDS011;41730;51.960;20.158;2023-03-12T09:29:20;7.80;;;2.90;;
55800;SDS011;41730;51.960;20.158;2023-03-12T09:31:52;5.20;;;2.30;;
55800;SDS011;41730;51.960;20.158;2023-03-12T09:34:24;6.80;;;2.90;;
55800;SDS011;41730;51.960;20.158;2023-03-12T09:36:56;5.20;;;2.40;;
55800;SDS011;41730;51.960;20.158;2023-03-12T09:39:27;5.40;;;2.30;;
55800;SDS011;41730;51.960;20.158;2023-03-12T09:41:59;4.50;;;2.10;;
55800;SDS011;41730;51.960;20.158;2023-03-12T09:44:33;5.30;;;2.40;;
55800;SDS011;41730;51.960;20.158;2023-03-12T09:47:09;4.60;;;2.40;;
55800;SDS011;41730;51.960;20.158;2023-03-12T09:49:52;7.20;;;3.70;;
55800;SDS011;41730;51.960;20.158;2023-03-12T09:52:30;4.40;;;2.40;;
55800;SDS011;41730;51.960;20.158;2023-03-12T09:55:06;7.40;;;2.20;;
55800;SDS011;41730;51.960;20.158;2023-03-12T09:57:43;5.90;;;2.30;;
55800;SDS011;41730;51.960;20.158;2023-03-12T10:03:05;5.90;;;2.10;;
55800;SDS011;41730;51.960;20.158;2023-03-12T10:05:50;5.30;;;2.10;;
55800;SDS011;41730;51.960;20.158;2023-03-12T10:08:38;3.50;;;2.00;;
55800;SDS011;41730;51.960;20.158;2023-03-12T10:11:25;4.60;;;2.20;;
55800;SDS011;41730;51.960;20.158;2023-03-12T10:14:09;4.20;;;1.90;;
55800;SDS011;41730;51.960;20.158;2023-03-12T10:17:05;4.90;;;2.50;;
55800;SDS011;41730;51.960;20.158;2023-03-12T10:19:55;4.80;;;2.00;;
55800;SDS011;41730;51.960;20.158;2023-03-12T10:22:42;5.80;;;2.40;;
55800;SDS011;41730;51.960;20.158;2023-03-12T10:25:23;6.30;;;2.80;;
55800;SDS011;41730;51.960;20.158;2023-03-12T10:28:03;5.20;;;2.40;;
55800;SDS011;41730;51.960;20.158;2023-03-12T10:30:47;6.60;;;2.70;;
55800;SDS011;41730;51.960;20.158;2023-03-12T10:33:23;6.80;;;2.80;;
55800;SDS011;41730;51.960;20.158;2023-03-12T10:36:07;8.10;;;2.80;;
55800;SDS011;41730;51.960;20.158;2023-03-12T10:38:43;7.10;;;2.60;;
55800;SDS011;41730;51.960;20.158;2023-03-12T10:41:17;5.70;;;2.50;;
55800;SDS011;41730;51.960;20.158;2023-03-12T10:43:51;4.50;;;2.40;;
55800;SDS011;41730;51.960;20.158;2023-03-12T10:46:37;5.50;;;2.60;;
55800;SDS011;41730;51.960;20.158;2023-03-12T10:49:24;4.50;;;2.60;;
55800;SDS011;41730;51.960;20.158;2023-03-12T10:52:00;7.10;;;2.60;;
55800;SDS011;41730;51.960;20.158;2023-03-12T10:54:34;7.00;;;2.70;;
55800;SDS011;41730;51.960;20.158;2023-03-12T10:57:07;6.00;;;2.90;;
55800;SDS011;41730;51.960;20.158;2023-03-12T10:59:41;6.30;;;2.90;;
55800;SDS011;41730;51.960;20.158;2023-03-12T11:05:19;7.20;;;2.90;;
55800;SDS011;41730;51.960;20.158;2023-03-12T11:07:53;6.50;;;2.60;;
55800;SDS011;41730;51.960;20.158;2023-03-12T11:10:36;6.50;;;2.40;;
55800;SDS011;41730;51.960;20.158;2023-03-12T11:13:23;6.60;;;2.50;;
55800;SDS011;41730;51.960;20.158;2023-03-12T11:18:30;8.40;;;2.40;;
55800;SDS011;41730;51.960;20.158;2023-03-12T11:21:17;11.60;;;5.50;;
55800;SDS011;41730;51.960;20.158;2023-03-12T11:26:48;9.40;;;3.10;;
55800;SDS011;41730;51.960;20.158;2023-03-12T11:29:26;6.20;;;2.70;;
55800;SDS011;41730;51.960;20.158;2023-03-12T11:32:09;6.00;;;2.80;;
55800;SDS011;41730;51.960;20.158;2023-03-12T11:34:46;3.80;;;2.00;;
55800;SDS011;41730;51.960;20.158;2023-03-12T11:37:23;4.00;;;1.90;;
55800;SDS011;41730;51.960;20.158;2023-03-12T11:40:11;4.70;;;1.80;;
55800;SDS011;41730;51.960;20.158;2023-03-12T11:43:17;4.10;;;2.00;;
55800;SDS011;41730;51.960;20.158;2023-03-12T11:46:15;3.90;;;1.90;;
55800;SDS011;41730;51.960;20.158;2023-03-12T11:49:07;4.40;;;2.20;;
55800;SDS011;41730;51.960;20.158;2023-03-12T11:51:52;10.00;;;2.40;;
55800;SDS011;41730;51.960;20.158;2023-03-12T11:54:41;3.80;;;1.90;;
55800;SDS011;41730;51.960;20.158;2023-03-12T11:57:39;3.30;;;1.90;;
55800;SDS011;41730;51.960;20.158;2023-03-12T12:00:23;3.90;;;2.10;;
55800;SDS011;41730;51.960;20.158;2023-03-12T12:06:02;5.80;;;2.90;;
55800;SDS011;41730;51.960;20.158;2023-03-12T12:08:46;6.10;;;2.40;;
55800;SDS011;41730;51.960;20.158;2023-03-12T12:11:36;8.60;;;4.60;;
55800;SDS011;41730;51.960;20.158;2023-03-12T12:14:17;6.50;;;2.90;;
55800;SDS011;41730;51.960;20.158;2023-03-12T12:17:06;5.80;;;2.70;;
55800;SDS011;41730;51.960;20.158;2023-03-12T12:19:46;4.50;;;2.60;;
55800;SDS011;41730;51.960;20.158;2023-03-12T12:22:30;5.40;;;2.40;;
55800;SDS011;41730;51.960;20.158;2023-03-12T12:25:20;4.00;;;2.50;;
55800;SDS011;41730;51.960;20.158;2023-03-12T12:30:51;5.80;;;2.20;;
55800;SDS011;41730;51.960;20.158;2023-03-12T12:33:35;8.30;;;3.50;;
55800;SDS011;41730;51.960;20.158;2023-03-12T12:36:29;6.60;;;3.10;;
55800;SDS011;41730;51.960;20.158;2023-03-12T12:39:04;7.30;;;3.00;;
55800;SDS011;41730;51.960;20.158;2023-03-12T12:41:43;4.70;;;2.40;;
55800;SDS011;41730;51.960;20.158;2023-03-12T12:44:19;5.20;;;2.40;;
55800;SDS011;41730;51.960;20.158;2023-03-12T12:46:55;5.70;;;3.00;;
55800;SDS011;41730;51.960;20.158;2023-03-12T12:49:32;6.00;;;3.80;;
55800;SDS011;41730;51.960;20.158;2023-03-12T12:52:14;3.60;;;2.30;;
55800;SDS011;41730;51.960;20.158;2023-03-12T12:54:50;6.00;;;2.40;;
55800;SDS011;41730;51.960;20.158;2023-03-12T12:57:30;4.50;;;2.30;;
55800;SDS011;41730;51.960;20.158;2023-03-12T13:00:23;4.20;;;2.20;;
55800;SDS011;41730;51.960;20.158;2023-03-12T13:03:15;6.20;;;2.10;;
55800;SDS011;41730;51.960;20.158;2023-03-12T13:05:56;5.40;;;2.10;;
55800;SDS011;41730;51.960;20.158;2023-03-12T13:08:35;8.10;;;3.00;;
55800;SDS011;41730;51.960;20.158;2023-03-12T13:11:24;5.20;;;2.20;;
55800;SDS011;41730;51.960;20.158;2023-03-12T13:14:14;6.50;;;2.30;;
55800;SDS011;41730;51.960;20.158;2023-03-12T13:16:51;3.50;;;1.90;;
55800;SDS011;41730;51.960;20.158;2023-03-12T13:19:53;5.40;;;2.60;;
55800;SDS011;41730;51.960;20.158;2023-03-12T13:22:40;4.80;;;1.80;;
55800;SDS011;41730;51.960;20.158;2023-03-12T13:25:24;4.80;;;2.00;;
55800;SDS011;41730;51.960;20.158;2023-03-12T13:31:03;3.30;;;1.90;;
55800;SDS011;41730;51.960;20.158;2023-03-12T13:34:28;5.60;;;2.40;;
55800;SDS011;41730;51.960;20.158;2023-03-12T13:40:37;6.10;;;2.20;;
55800;SDS011;41730;51.960;20.158;2023-03-12T13:49:13;3.80;;;1.80;;
55800;SDS011;41730;51.960;20.158;2023-03-12T13:52:06;4.10;;;2.20;;
55800;SDS011;41730;51.960;20.158;2023-03-12T13:54:55;4.20;;;2.30;;
55800;SDS011;41730;51.960;20.158;2023-03-12T13:57:33;4.70;;;2.50;;
55800;SDS011;41730;51.960;20.158;2023-03-12T14:00:14;7.90;;;3.00;;
55800;SDS011;41730;51.960;20.158;2023-03-12T14:02:50;7.30;;;2.50;;
55800;SDS011;41730;51.960;20.158;2023-03-12T14:05:27;6.40;;;2.50;;
55800;SDS011;41730;51.960;20.158;2023-03-12T14:08:13;6.20;;;2.40;;
55800;SDS011;41730;51.960;20.158;2023-03-12T14:11:02;7.30;;;3.90;;
55800;SDS011;41730;51.960;20.158;2023-03-12T14:13:56;7.50;;;3.00;;
55800;SDS011;41730;51.960;20.158;2023-03-12T14:16:46;3.80;;;2.30;;
55800;SDS011;41730;51.960;20.158;2023-03-12T14:19:23;4.90;;;2.30;;
55800;SDS011;41730;51.960;20.158;2023-03-12T14:22:01;4.00;;;2.50;;
55800;SDS011;41730;51.960;20.158;2023-03-12T14:24:38;6.20;;;2.40;;
55800;SDS011;41730;51.960;20.158;2023-03-12T14:27:19;5.20;;;2.50;;
55800;SDS011;41730;51.960;20.158;2023-03-12T14:29:56;7.00;;;2.40;;
55800;SDS011;41730;51.960;20.158;2023-03-12T14:32:36;6.20;;;2.90;;
55800;SDS011;41730;51.960;20.158;2023-03-12T14:35:15;6.30;;;2.60;;
55800;SDS011;41730;51.960;20.158;2023-03-12T14:37:52;4.50;;;2.40;;
55800;SDS011;41730;51.960;20.158;2023-03-12T14:40:33;4.10;;;2.40;;
55800;SDS011;41730;51.960;20.158;2023-03-12T14:43:20;7.50;;;3.50;;
55800;SDS011;41730;51.960;20.158;2023-03-12T14:45:57;7.70;;;4.10;;
55800;SDS011;41730;51.960;20.158;2023-03-12T14:48:31;9.10;;;2.90;;
55800;SDS011;41730;51.960;20.158;2023-03-12T14:51:07;6.70;;;3.50;;
55800;SDS011;41730;51.960;20.158;2023-03-12T14:53:51;6.70;;;3.10;;
55800;SDS011;41730;51.960;20.158;2023-03-12T14:56:25;7.20;;;3.10;;
55800;SDS011;41730;51.960;20.158;2023-03-12T14:59:00;6.70;;;3.50;;
55800;SDS011;41730;51.960;20.158;2023-03-12T15:01:51;7.00;;;3.60;;
55800;SDS011;41730;51.960;20.158;2023-03-12T15:04:30;9.40;;;4.00;;
55800;SDS011;41730;51.960;20.158;2023-03-12T15:07:06;7.70;;;2.90;;
55800;SDS011;41730;51.960;20.158;2023-03-12T15:09:43;7.60;;;3.20;;
55800;SDS011;41730;51.960;20.158;2023-03-12T15:12:19;5.10;;;2.50;;
55800;SDS011;41730;51.960;20.158;2023-03-12T15:14:54;6.90;;;2.40;;
55800;SDS011;41730;51.960;20.158;2023-03-12T15:17:32;5.80;;;2.30;;
55800;SDS011;41730;51.960;20.158;2023-03-12T15:20:10;5.00;;;3.00;;
55800;SDS011;41730;51.960;20.158;2023-03-12T15:22:48;5.70;;;2.70;;
55800;SDS011;41730;51.960;20.158;2023-03-12T15:25:21;5.60;;;3.20;;
55800;SDS011;41730;51.960;20.158;2023-03-12T15:28:03;8.30;;;3.00;;
55800;SDS011;41730;51.960;20.158;2023-03-12T15:31:05;5.40;;;2.90;;
55800;SDS011;41730;51.960;20.158;2023-03-12T15:33:57;10.70;;;4.50;;
55800;SDS011;41730;51.960;20.158;2023-03-12T15:36:43;8.40;;;4.40;;
55800;SDS011;41730;51.960;20.158;2023-03-12T15:39:31;14.30;;;4.60;;
55800;SDS011;41730;51.960;20.158;2023-03-12T15:42:23;11.40;;;4.80;;
55800;SDS011;41730;51.960;20.158;2023-03-12T15:45:17;10.40;;;4.00;;
55800;SDS011;41730;51.960;20.158;2023-03-12T15:47:52;26.50;;;10.90;;
55800;SDS011;41730;51.960;20.158;2023-03-12T15:50:29;11.50;;;5.80;;
55800;SDS011;41730;51.960;20.158;2023-03-12T15:53:06;8.60;;;4.90;;